createdAt,value
2018-05-18T00:01:48.350Z,60.00
2018-05-18T00:04:15.298Z,60.10
2018-05-18T00:06:42.322Z,60.00
2018-05-18T00:09:09.259Z,59.90
2018-05-18T00:11:35.487Z,59.90
2018-05-18T00:14:01.662Z,59.70
2018-05-18T00:16:27.922Z,59.80
2018-05-18T00:18:54.117Z,60.00
2018-05-18T00:21:20.293Z,60.30
2018-05-18T00:23:46.494Z,60.20
2018-05-18T00:26:12.666Z,60.70
2018-05-18T00:28:38.930Z,60.30
2018-05-18T00:31:05.844Z,60.70
2018-05-18T00:33:32.779Z,61.00
2018-05-18T00:35:59.740Z,61.30
2018-05-18T00:38:26.758Z,61.40
2018-05-18T00:40:52.935Z,61.40
2018-05-18T00:43:19.122Z,61.40
2018-05-18T00:45:45.306Z,61.00
2018-05-18T00:48:11.464Z,60.90
2018-05-18T00:50:37.659Z,61.20
2018-05-18T00:53:03.849Z,60.80
2018-05-18T00:55:39.676Z,60.40
2018-05-18T00:58:05.871Z,60.30
2018-05-18T01:00:32.060Z,60.80
2018-05-18T01:02:58.270Z,60.80
2018-05-18T01:05:25.228Z,61.30
2018-05-18T01:07:52.258Z,61.30
2018-05-18T01:10:18.444Z,61.30
2018-05-18T01:12:44.633Z,60.90
2018-05-18T01:15:10.890Z,60.90
2018-05-18T01:17:37.077Z,61.00
2018-05-18T01:20:04.010Z,60.70
2018-05-18T01:22:30.959Z,61.00
2018-05-18T01:24:58.010Z,61.00
2018-05-18T01:27:24.951Z,61.30
2018-05-18T01:29:51.895Z,61.00
2018-05-18T01:32:18.889Z,61.10
2018-05-18T01:34:45.085Z,61.10
2018-05-18T01:37:11.273Z,61.00
2018-05-18T01:39:37.480Z,60.70
2018-05-18T01:42:03.716Z,60.70
2018-05-18T01:44:29.948Z,61.00
2018-05-18T01:46:56.166Z,60.50
2018-05-18T01:49:22.349Z,60.30
2018-05-18T01:51:48.505Z,60.10
2018-05-18T01:54:14.718Z,60.30
2018-05-18T01:56:41.001Z,60.00
2018-05-18T01:59:07.197Z,61.50
2018-05-18T02:01:33.426Z,62.50
2018-05-18T02:03:59.610Z,61.90
2018-05-18T02:06:25.838Z,61.40
2018-05-18T02:08:52.076Z,61.30
2018-05-18T02:11:18.260Z,60.80
2018-05-18T02:13:44.425Z,60.70
2018-05-18T02:16:10.635Z,60.60
2018-05-18T02:18:37.562Z,60.30
2018-05-18T02:21:04.558Z,60.30
2018-05-18T02:23:30.728Z,60.20
2018-05-18T02:25:56.896Z,60.20
2018-05-18T02:28:23.098Z,60.80
2018-05-18T02:30:50.042Z,60.70
2018-05-18T02:33:16.963Z,60.90
2018-05-18T02:35:43.142Z,60.90
2018-05-18T02:38:09.351Z,60.70
2018-05-18T02:40:36.292Z,61.00
2018-05-18T02:43:03.209Z,61.00
2018-05-18T02:45:30.872Z,60.90
2018-05-18T02:47:57.060Z,60.80
2018-05-18T02:50:23.268Z,60.40
2018-05-18T02:52:49.442Z,60.30
2018-05-18T02:55:15.735Z,59.80
2018-05-18T02:57:41.955Z,59.40
2018-05-18T03:00:08.141Z,59.30
2018-05-18T03:02:34.352Z,60.00
2018-05-18T03:05:00.545Z,59.50
2018-05-18T03:07:26.785Z,59.40
2018-05-18T03:09:52.974Z,59.60
2018-05-18T03:12:20.002Z,59.70
2018-05-18T03:14:46.981Z,60.00
2018-05-18T03:17:13.165Z,60.00
2018-05-18T03:19:40.103Z,60.00
2018-05-18T03:22:06.434Z,60.00
2018-05-18T03:24:32.626Z,60.30
2018-05-18T03:26:58.861Z,60.30
2018-05-18T03:29:25.032Z,60.00
2018-05-18T03:31:51.993Z,60.00
2018-05-18T03:34:19.017Z,60.10
2018-05-18T03:36:45.959Z,60.40
2018-05-18T03:39:12.191Z,60.40
2018-05-18T03:41:39.138Z,60.00
2018-05-18T03:44:06.079Z,60.00
2018-05-18T03:46:32.259Z,59.90
2018-05-18T03:48:58.454Z,60.00
2018-05-18T03:51:24.643Z,59.50
2018-05-18T03:53:50.834Z,59.50
2018-05-18T03:56:17.034Z,59.00
2018-05-18T03:58:43.240Z,59.20
2018-05-18T04:04:14.537Z,59.40
2018-05-18T04:06:53.039Z,59.80
2018-05-18T04:09:19.957Z,60.20
2018-05-18T04:11:46.159Z,60.20
2018-05-18T04:14:12.366Z,60.00
2018-05-18T04:16:38.582Z,60.10
2018-05-18T04:19:04.873Z,60.20
2018-05-18T04:21:31.068Z,60.00
2018-05-18T04:23:57.253Z,60.00
2018-05-18T04:26:23.460Z,60.00
2018-05-18T04:28:50.359Z,59.80
2018-05-18T04:31:16.558Z,59.80
2018-05-18T04:33:42.770Z,60.00
2018-05-18T04:36:09.728Z,59.70
2018-05-18T04:38:35.955Z,59.70
2018-05-18T04:41:02.143Z,59.70
2018-05-18T04:43:28.334Z,59.50
2018-05-18T04:45:54.590Z,59.50
2018-05-18T04:48:20.793Z,59.40
2018-05-18T04:50:46.969Z,59.10
2018-05-18T04:53:13.917Z,58.10
2018-05-18T04:55:40.833Z,58.20
2018-05-18T04:58:07.026Z,58.10
2018-05-18T05:00:33.257Z,58.00
2018-05-18T05:02:59.454Z,57.90
2018-05-18T05:05:25.632Z,58.00
2018-05-18T05:07:51.802Z,57.00
2018-05-18T05:10:18.017Z,56.60
2018-05-18T05:12:45.016Z,55.60
2018-05-18T05:15:11.226Z,55.60
2018-05-18T05:17:37.445Z,55.30
2018-05-18T05:20:03.714Z,55.20
2018-05-18T05:22:29.918Z,55.20
2018-05-18T05:24:56.114Z,54.80
2018-05-18T05:27:23.081Z,54.00
2018-05-18T05:29:49.265Z,54.00
2018-05-18T05:32:16.197Z,55.00
2018-05-18T05:34:43.847Z,54.20
2018-05-18T05:37:10.061Z,54.20
2018-05-18T05:39:36.239Z,53.80
2018-05-18T05:42:03.178Z,54.00
2018-05-18T05:44:30.110Z,53.60
2018-05-18T05:46:56.375Z,53.60
2018-05-18T05:49:22.558Z,52.70
2018-05-18T05:51:48.730Z,52.50
2018-05-18T05:54:14.941Z,52.50
2018-05-18T05:56:41.129Z,53.00
2018-05-18T05:59:07.338Z,52.90
2018-05-18T06:01:33.716Z,53.70
2018-05-18T06:03:59.910Z,53.80
2018-05-18T06:06:26.135Z,52.80
2018-05-18T06:08:53.063Z,51.90
2018-05-18T06:11:19.224Z,51.90
2018-05-18T06:13:45.418Z,50.90
2018-05-18T06:16:11.601Z,51.20
2018-05-18T06:18:37.794Z,52.00
2018-05-18T06:21:04.001Z,51.50
2018-05-18T06:23:30.190Z,50.50
2018-05-18T06:25:56.395Z,50.50
2018-05-18T06:28:23.313Z,49.40
2018-05-18T06:30:49.522Z,49.30
2018-05-18T06:33:15.760Z,48.70
2018-05-18T06:35:42.009Z,48.80
2018-05-18T06:38:08.215Z,48.40
2018-05-18T06:40:34.538Z,47.70
2018-05-18T06:43:00.728Z,47.80
2018-05-18T06:45:26.962Z,48.00
2018-05-18T06:47:53.130Z,48.20
2018-05-18T06:50:19.451Z,48.60
2018-05-18T06:52:45.644Z,49.00
2018-05-18T06:55:11.833Z,48.80
2018-05-18T06:57:38.055Z,48.70
2018-05-18T07:00:04.233Z,49.20
2018-05-18T07:02:30.441Z,48.50
2018-05-18T07:04:56.666Z,48.90
2018-05-18T07:07:22.898Z,47.90
2018-05-18T07:09:49.091Z,47.80
2018-05-18T07:12:15.314Z,48.10
2018-05-18T07:14:41.764Z,47.70
2018-05-18T07:17:08.726Z,46.50
2018-05-18T07:19:34.945Z,46.50
2018-05-18T07:22:01.934Z,45.60
2018-05-18T07:24:28.119Z,45.60
2018-05-18T07:26:54.310Z,44.80
2018-05-18T07:29:20.519Z,44.40
2018-05-18T07:31:46.729Z,45.10
2018-05-18T07:34:12.943Z,44.60
2018-05-18T07:36:39.130Z,44.60
2018-05-18T07:39:05.577Z,44.70
2018-05-18T07:41:32.555Z,45.10
2018-05-18T07:43:58.825Z,45.10
2018-05-18T07:46:25.729Z,40.70
2018-05-18T07:48:51.941Z,40.60
2018-05-18T07:51:18.161Z,39.00
2018-05-18T07:53:44.357Z,38.50
2018-05-18T07:56:10.621Z,38.50
2018-05-18T07:58:36.839Z,38.70
2018-05-18T08:01:03.022Z,36.60
2018-05-18T08:03:29.213Z,33.10
2018-05-18T08:05:56.175Z,31.10
2018-05-18T08:08:22.349Z,31.10
2018-05-18T08:10:48.560Z,30.90
2018-05-18T08:13:14.809Z,32.10
2018-05-18T08:15:41.717Z,31.90
2018-05-18T08:18:07.925Z,31.20
2018-05-18T08:20:34.115Z,30.00
2018-05-18T08:23:01.054Z,26.00
2018-05-18T08:25:28.062Z,25.00
2018-05-18T08:27:54.237Z,24.90
2018-05-18T08:30:20.461Z,25.00
2018-05-18T08:32:47.381Z,27.60
2018-05-18T08:35:13.579Z,27.60
2018-05-18T08:37:39.781Z,27.50
2018-05-18T08:40:06.031Z,27.90
2018-05-18T08:42:32.232Z,26.70
2018-05-18T08:44:58.477Z,25.80
2018-05-18T08:47:24.675Z,25.10
2018-05-18T08:49:50.862Z,28.00
2018-05-18T08:52:17.058Z,28.30
2018-05-18T08:54:43.266Z,29.30
2018-05-18T08:57:09.475Z,30.40
2018-05-18T08:59:36.394Z,30.60
2018-05-18T09:02:02.602Z,30.60
2018-05-18T09:04:28.883Z,28.90
2018-05-18T09:06:55.086Z,28.60
2018-05-18T09:09:22.058Z,27.60
2018-05-18T09:11:48.307Z,27.50
2018-05-18T09:14:14.515Z,28.00
2018-05-18T09:16:40.769Z,27.50
2018-05-18T09:19:07.010Z,25.90
2018-05-18T09:21:33.193Z,24.40
2018-05-18T09:23:59.414Z,25.10
2018-05-18T09:26:26.373Z,25.20
2018-05-18T09:28:52.555Z,25.20
2018-05-18T09:31:18.771Z,24.30
2018-05-18T09:33:44.978Z,23.90
2018-05-18T09:36:11.273Z,24.00
2018-05-18T09:38:38.207Z,24.50
2018-05-18T09:41:04.399Z,24.50
2018-05-18T09:43:30.596Z,24.60
2018-05-18T09:45:56.802Z,27.20
2018-05-18T09:48:23.033Z,29.50
2018-05-18T09:50:49.311Z,30.20
2018-05-18T09:53:15.647Z,30.40
2018-05-18T09:55:41.862Z,28.50
2018-05-18T09:58:08.080Z,25.50
2018-05-18T10:00:34.367Z,23.70
2018-05-18T10:03:00.522Z,22.80
2018-05-18T10:05:26.729Z,23.60
2018-05-18T10:07:52.952Z,23.60
2018-05-18T10:10:19.305Z,23.00
2018-05-18T10:12:45.569Z,23.80
2018-05-18T10:15:11.807Z,25.70
2018-05-18T10:17:38.026Z,26.60
2018-05-18T10:20:04.251Z,26.30
2018-05-18T10:22:31.186Z,26.00
2018-05-18T10:24:57.404Z,26.00
2018-05-18T10:27:23.594Z,25.80
2018-05-18T10:29:49.814Z,24.80
2018-05-18T10:32:16.733Z,25.20
2018-05-18T10:34:42.955Z,25.20
2018-05-18T10:37:09.148Z,26.20
2018-05-18T10:39:35.402Z,24.90
2018-05-18T10:42:01.600Z,24.20
2018-05-18T10:44:27.790Z,24.80
2018-05-18T10:46:54.012Z,25.60
2018-05-18T10:49:21.047Z,27.20
2018-05-18T10:51:47.242Z,27.20
2018-05-18T10:54:13.458Z,28.50
2018-05-18T10:56:39.656Z,27.10
2018-05-18T10:59:05.841Z,26.20
2018-05-18T11:01:32.058Z,24.70
2018-05-18T11:03:59.037Z,25.10
2018-05-18T11:06:25.976Z,25.50
2018-05-18T11:08:52.893Z,25.20
2018-05-18T11:11:19.090Z,25.20
2018-05-18T11:13:45.326Z,25.00
2018-05-18T11:16:11.564Z,24.90
2018-05-18T11:18:37.762Z,24.70
2018-05-18T11:21:04.148Z,24.50
2018-05-18T11:23:30.361Z,24.20
2018-05-18T11:25:56.554Z,24.70
2018-05-18T11:28:22.782Z,23.50
2018-05-18T11:30:48.982Z,24.00
2018-05-18T11:33:16.162Z,25.20
2018-05-18T11:35:42.186Z,25.20
2018-05-18T11:38:08.387Z,25.80
2018-05-18T11:40:35.374Z,26.30
2018-05-18T11:43:01.582Z,26.40
2018-05-18T11:45:27.769Z,26.50
2018-05-18T11:47:54.750Z,27.20
2018-05-18T11:50:20.946Z,27.20
2018-05-18T11:52:47.934Z,26.60
2018-05-18T11:55:14.118Z,26.70
2018-05-18T11:57:41.045Z,28.30
2018-05-18T12:00:07.645Z,28.20
2018-05-18T12:02:33.833Z,28.90
2018-05-18T12:05:00.786Z,30.10
2018-05-18T12:07:26.979Z,29.60
2018-05-18T12:09:54.734Z,30.70
2018-05-18T12:12:38.274Z,30.70
2018-05-18T12:15:04.512Z,31.70
2018-05-18T12:17:31.486Z,33.70
2018-05-18T12:19:57.729Z,33.00
2018-05-18T12:22:23.979Z,33.80
2018-05-18T12:24:50.198Z,34.60
2018-05-18T12:27:16.409Z,35.00
2018-05-18T12:29:42.608Z,34.60
2018-05-18T12:32:09.600Z,36.20
2018-05-18T12:34:35.866Z,36.10
2018-05-18T12:37:02.955Z,34.70
2018-05-18T12:39:29.158Z,34.50
2018-05-18T12:41:55.391Z,35.30
2018-05-18T12:44:21.701Z,34.60
2018-05-18T12:46:47.892Z,34.40
2018-05-18T12:49:14.254Z,35.40
2018-05-18T12:51:40.496Z,33.30
2018-05-18T12:54:07.471Z,34.50
2018-05-18T12:56:33.703Z,34.50
2018-05-18T12:58:59.890Z,34.10
2018-05-18T13:01:26.834Z,35.50
2018-05-18T13:03:53.815Z,34.80
2018-05-18T13:06:20.005Z,34.70
2018-05-18T13:08:46.985Z,36.00
2018-05-18T13:11:13.310Z,35.40
2018-05-18T13:13:39.595Z,34.70
2018-05-18T13:16:05.843Z,34.70
2018-05-18T13:18:32.781Z,36.20
2018-05-18T13:20:59.102Z,36.20
2018-05-18T13:23:25.299Z,35.90
2018-05-18T13:25:51.528Z,35.70
2018-05-18T13:28:17.722Z,36.10
2018-05-18T13:30:44.002Z,35.70
2018-05-18T13:33:10.268Z,36.00
2018-05-18T13:35:36.489Z,36.40
2018-05-18T13:38:03.452Z,36.10
2018-05-18T13:40:29.699Z,36.10
2018-05-18T13:42:55.931Z,35.50
2018-05-18T13:45:22.109Z,36.30
2018-05-18T13:47:49.045Z,35.80
2018-05-18T13:50:15.226Z,35.80
2018-05-18T13:52:41.432Z,36.30
2018-05-18T13:55:07.667Z,35.10
2018-05-18T13:57:33.841Z,36.20
2018-05-18T14:00:00.046Z,36.40
2018-05-18T14:02:26.250Z,36.60
2018-05-18T14:04:52.461Z,36.50
2018-05-18T14:07:18.679Z,37.80
2018-05-18T14:09:46.230Z,37.80
2018-05-18T14:12:13.167Z,37.90
2018-05-18T14:14:40.157Z,37.90
2018-05-18T14:17:06.420Z,37.90
2018-05-18T14:19:32.693Z,37.70
2018-05-18T14:21:58.925Z,37.00
2018-05-18T14:24:25.112Z,36.70
2018-05-18T14:26:51.369Z,36.40
2018-05-18T14:29:18.328Z,38.00
2018-05-18T14:31:44.755Z,38.00
2018-05-18T14:34:11.013Z,37.80
2018-05-18T14:36:37.224Z,37.60
2018-05-18T14:39:04.560Z,37.50
2018-05-18T14:41:30.769Z,37.80
2018-05-18T14:43:57.815Z,38.30
2018-05-18T14:46:23.979Z,38.20
2018-05-18T14:48:50.222Z,37.40
2018-05-18T14:51:16.483Z,37.40
2018-05-18T14:53:43.363Z,37.30
2018-05-18T14:56:09.607Z,37.30
2018-05-18T14:58:35.863Z,38.00
2018-05-18T15:01:02.066Z,37.90
2018-05-18T15:03:28.376Z,38.50
2018-05-18T15:05:54.593Z,38.80
2018-05-18T15:08:21.559Z,38.90
2018-05-18T15:10:47.847Z,38.90
2018-05-18T15:13:14.034Z,39.10
2018-05-18T15:15:40.270Z,40.00
2018-05-18T15:18:06.491Z,39.20
2018-05-18T15:20:32.713Z,39.50
2018-05-18T15:22:58.913Z,39.70
2018-05-18T15:25:25.133Z,39.70
2018-05-18T15:27:52.084Z,38.70
2018-05-18T15:30:18.333Z,38.70
2018-05-18T15:32:44.544Z,39.10
2018-05-18T15:35:10.782Z,38.40
2018-05-18T15:37:36.983Z,38.70
2018-05-18T15:40:03.930Z,40.10
2018-05-18T15:42:30.922Z,40.10
2018-05-18T15:44:57.130Z,40.00
2018-05-18T15:47:23.354Z,40.70
2018-05-18T15:49:49.691Z,40.90
2018-05-18T15:52:15.972Z,40.90
2018-05-18T15:54:42.899Z,41.50
2018-05-18T15:57:09.190Z,41.50
2018-05-18T15:59:35.408Z,41.60
2018-05-18T16:02:01.631Z,41.20
2018-05-18T16:04:27.969Z,41.30
2018-05-18T16:06:54.868Z,41.20
2018-05-18T16:09:21.833Z,41.50
2018-05-18T16:11:48.111Z,41.50
2018-05-18T16:14:14.350Z,41.30
2018-05-18T16:16:40.579Z,41.70
2018-05-18T16:19:06.879Z,41.70
2018-05-18T16:21:33.074Z,41.00
2018-05-18T16:24:00.035Z,41.30
2018-05-18T16:26:26.247Z,41.30
2018-05-18T16:28:52.496Z,40.90
2018-05-18T16:31:18.699Z,41.10
2018-05-18T16:33:45.674Z,40.80
2018-05-18T16:36:11.871Z,40.80
2018-05-18T16:38:38.813Z,41.00
2018-05-18T16:41:05.866Z,41.30
2018-05-18T16:43:32.835Z,41.40
2018-05-18T16:45:59.024Z,41.40
2018-05-18T16:48:25.977Z,42.00
2018-05-18T16:50:52.935Z,41.90
2018-05-18T16:53:19.161Z,41.90
2018-05-18T16:55:46.217Z,42.40
2018-05-18T16:58:12.427Z,42.40
2018-05-18T17:00:38.624Z,42.40
2018-05-18T17:03:04.859Z,42.90
2018-05-18T17:05:31.085Z,42.70
2018-05-18T17:07:58.074Z,43.10
2018-05-18T17:10:24.303Z,43.00
2018-05-18T17:12:50.496Z,43.20
2018-05-18T17:15:17.450Z,43.50
2018-05-18T17:17:44.421Z,43.50
2018-05-18T17:20:10.635Z,43.40
2018-05-18T17:22:36.868Z,43.20
2018-05-18T17:25:03.213Z,43.40
2018-05-18T17:27:29.432Z,43.40
2018-05-18T17:29:55.666Z,43.80
2018-05-18T17:32:21.980Z,43.60
2018-05-18T17:34:48.281Z,43.50
2018-05-18T17:37:14.512Z,43.50
2018-05-18T17:39:41.542Z,44.00
2018-05-18T17:42:07.763Z,43.40
2018-05-18T17:44:34.060Z,43.40
2018-05-18T17:47:00.359Z,43.50
2018-05-18T17:49:27.296Z,43.80
2018-05-18T17:51:54.289Z,43.80
2018-05-18T17:54:25.406Z,43.80
2018-05-18T17:56:51.601Z,44.00
2018-05-18T17:59:17.860Z,44.30
2018-05-18T18:01:44.101Z,44.60
2018-05-18T18:04:11.111Z,44.60
2018-05-18T18:06:37.311Z,44.60
2018-05-18T18:09:04.562Z,44.70
2018-05-18T18:11:30.792Z,44.90
2018-05-18T18:13:57.780Z,45.30
2018-05-18T18:16:24.030Z,45.30
2018-05-18T18:18:50.248Z,45.50
2018-05-18T18:21:16.502Z,45.70
2018-05-18T18:23:42.684Z,46.00
2018-05-18T18:26:09.646Z,46.00
2018-05-18T18:28:35.879Z,45.90
2018-05-18T18:31:02.170Z,46.20
2018-05-18T18:33:29.148Z,46.50
2018-05-18T18:35:55.403Z,46.50
2018-05-18T18:38:21.599Z,46.50
2018-05-18T18:40:47.898Z,47.10
2018-05-18T18:43:14.916Z,47.20
2018-05-18T18:45:41.109Z,47.20
2018-05-18T18:48:07.317Z,47.50
2018-05-18T18:50:33.503Z,47.80
2018-05-18T18:53:00.524Z,48.50
2018-05-18T18:55:26.854Z,48.40
2018-05-18T18:57:53.065Z,48.80
2018-05-18T19:00:19.285Z,49.30
2018-05-18T19:02:45.551Z,49.20
2018-05-18T19:05:12.927Z,49.80
2018-05-18T19:07:39.153Z,49.80
2018-05-18T19:10:05.396Z,49.80
2018-05-18T19:12:32.351Z,50.00
2018-05-18T19:14:59.343Z,50.10
2018-05-18T19:17:25.522Z,50.00
2018-05-18T19:19:52.662Z,50.70
2018-05-18T19:22:19.633Z,51.00
2018-05-18T19:24:45.876Z,50.90
2018-05-18T19:27:12.097Z,51.00
2018-05-18T19:29:38.367Z,51.20
2018-05-18T19:32:04.545Z,51.60
2018-05-18T19:34:30.855Z,52.00
2018-05-18T19:36:57.816Z,52.10
2018-05-18T19:39:24.107Z,52.10
2018-05-18T19:41:50.365Z,52.00
2018-05-18T19:44:17.315Z,52.40
2018-05-18T19:46:43.550Z,52.40
2018-05-18T19:49:09.828Z,52.50
2018-05-18T19:51:36.042Z,52.40
2018-05-18T19:54:02.242Z,53.00
2018-05-18T19:56:28.529Z,52.80
2018-05-18T19:58:54.773Z,53.10
2018-05-18T20:01:21.730Z,53.00
2018-05-18T20:03:47.994Z,53.00
2018-05-18T20:06:14.273Z,53.20
2018-05-18T20:08:41.317Z,53.70
2018-05-18T20:11:07.636Z,53.70
2018-05-18T20:13:33.850Z,53.30
2018-05-18T20:16:00.081Z,53.20
2018-05-18T20:18:27.363Z,53.00
2018-05-18T20:20:53.642Z,53.10
2018-05-18T20:23:19.888Z,53.40
2018-05-18T20:25:46.199Z,53.30
2018-05-18T20:28:12.466Z,53.60
2018-05-18T20:30:39.443Z,54.60
2018-05-18T20:33:05.663Z,53.90
2018-05-18T20:35:31.929Z,53.90
2018-05-18T20:37:58.159Z,55.00
2018-05-18T20:40:24.391Z,54.60
2018-05-18T20:42:50.683Z,55.10
2018-05-18T20:45:16.913Z,55.30
2018-05-18T20:47:43.171Z,55.40
2018-05-18T20:50:09.470Z,55.60
2018-05-18T20:52:35.716Z,55.70
2018-05-18T20:55:01.948Z,55.70
2018-05-18T20:57:28.155Z,56.20
2018-05-18T20:59:54.394Z,56.40
2018-05-18T21:02:20.620Z,56.40
2018-05-18T21:04:46.835Z,56.40
2018-05-18T21:07:16.834Z,56.70
2018-05-18T21:09:43.035Z,56.70
2018-05-18T21:12:09.259Z,57.10
2018-05-18T21:14:37.748Z,57.30
2018-05-18T21:17:04.719Z,57.70
2018-05-18T21:19:30.933Z,57.70
2018-05-18T21:21:57.892Z,58.20
2018-05-18T21:24:24.114Z,58.10
2018-05-18T21:26:50.363Z,58.40
2018-05-18T21:29:16.558Z,58.30
2018-05-18T21:31:43.653Z,58.60
2018-05-18T21:34:09.858Z,58.50
2018-05-18T21:36:36.073Z,58.70
2018-05-18T21:39:02.428Z,58.50
2018-05-18T21:41:28.680Z,58.80
2018-05-18T21:43:54.924Z,58.70
2018-05-18T21:46:22.606Z,58.90
2018-05-18T21:48:49.552Z,59.20
2018-05-18T21:51:16.524Z,59.20
2018-05-18T21:53:42.779Z,59.20
2018-05-18T21:56:08.997Z,59.30
2018-05-18T21:58:35.329Z,59.60
2018-05-18T22:01:01.487Z,59.30
2018-05-18T22:03:27.735Z,59.50
2018-05-18T22:05:54.729Z,60.00
2018-05-18T22:08:21.069Z,60.00
2018-05-18T22:10:47.304Z,60.10
2018-05-18T22:13:13.516Z,60.90
2018-05-18T22:15:39.747Z,60.20
2018-05-18T22:18:05.982Z,59.90
2018-05-18T22:20:32.283Z,59.80
2018-05-18T22:22:58.494Z,60.30
2018-05-18T22:25:24.745Z,60.40
2018-05-18T22:27:50.975Z,60.90
2018-05-18T22:30:17.205Z,61.00
2018-05-18T22:32:43.441Z,61.40
2018-05-18T22:35:09.669Z,63.00
2018-05-18T22:37:35.914Z,62.80
2018-05-18T22:40:02.884Z,62.10
2018-05-18T22:42:29.838Z,62.10
2018-05-18T22:44:56.126Z,63.10
2018-05-18T22:47:22.325Z,62.20
2018-05-18T22:49:48.583Z,63.00
2018-05-18T22:52:14.787Z,63.60
2018-05-18T22:54:41.016Z,64.50
2018-05-18T22:57:07.228Z,64.50
2018-05-18T22:59:33.451Z,64.80
2018-05-18T23:01:59.670Z,65.70
2018-05-18T23:04:25.905Z,65.70
2018-05-18T23:06:52.126Z,65.80
2018-05-18T23:09:18.339Z,65.80
2018-05-18T23:11:45.303Z,65.80
2018-05-18T23:14:11.516Z,66.50
2018-05-18T23:16:38.477Z,67.60
2018-05-18T23:19:04.702Z,67.60
2018-05-18T23:21:30.944Z,67.60
2018-05-18T23:23:57.169Z,67.50
2018-05-18T23:26:23.537Z,67.20
2018-05-18T23:28:49.762Z,67.20
2018-05-18T23:31:15.977Z,67.40
2018-05-18T23:33:42.185Z,67.70
2018-05-18T23:36:08.398Z,68.40
2018-05-18T23:38:34.661Z,67.20
2018-05-18T23:41:00.862Z,68.50
2018-05-18T23:43:27.090Z,68.50
2018-05-18T23:45:53.373Z,67.70
2018-05-18T23:48:19.610Z,68.40
2018-05-18T23:50:46.569Z,69.10
2018-05-18T23:53:12.760Z,69.10
2018-05-18T23:55:38.943Z,68.70
2018-05-18T23:58:05.167Z,69.60
